TAF Text Data
IDs:
Format:
Raw Decoded Include METAR

Data at: 0243 UTC 24 Jun 2021

KCYS 232320Z 2400/2424 30012G22KT P6SM VCSH SCT100 BKN150
  FM240200 32010KT P6SM SCT150
  FM241500 06010KT P6SM BKN150
  FM241900 20010G20KT P6SM VCTS BKN060CB